Archival Weather

General Ignacio P Garcia Intl

General Ignacio P Garcia Intl, Mexico (MMHO)

Report from: Wednesday, September 20, 2023 7:40 AM CST
Current time: Wednesday, April 24, 2024 2:09 PM CST

Current weather – Weather history – Daily summaries
Weather forecast

Temperature26.0°C (78.8°F)
Dew point22.0°C (71.6°F)
Winds Calm
Visibility10 mi. (16.1 km)
Clouds Ceiling: Broken clouds 8,000 ft. (2,438 m)
Altimeter29.83 in.Hg (1010 mB)
Relative humidity79 %
Density altitude1,731 ft. (528 m)
Flight conditions Visual Meteorological Conditions
Raw dataMMHO 201340Z 00000KT 10SM BKN080 26/22 A2983 RMK 8/030 HZY
An error has occurred. This application may no longer respond until reloaded. Reload 🗙